sensor_id;sensor_type;location;lat;lon;timestamp;P1;durP1;ratioP1;P2;durP2;ratioP2
61477;SDS011;47345;52.334;10.392;2023-05-21T00:00:18;7.70;;;5.70;;
61477;SDS011;47345;52.334;10.392;2023-05-21T00:02:49;7.70;;;5.50;;
61477;SDS011;47345;52.334;10.392;2023-05-21T00:05:21;8.70;;;5.80;;
61477;SDS011;47345;52.334;10.392;2023-05-21T00:07:51;8.40;;;5.50;;
61477;SDS011;47345;52.334;10.392;2023-05-21T00:10:22;9.10;;;6.00;;
61477;SDS011;47345;52.334;10.392;2023-05-21T00:12:54;9.00;;;5.80;;
61477;SDS011;47345;52.334;10.392;2023-05-21T00:15:24;8.60;;;5.80;;
61477;SDS011;47345;52.334;10.392;2023-05-21T00:17:56;9.80;;;5.90;;
61477;SDS011;47345;52.334;10.392;2023-05-21T00:20:26;8.00;;;5.30;;
61477;SDS011;47345;52.334;10.392;2023-05-21T00:22:59;8.60;;;5.50;;
61477;SDS011;47345;52.334;10.392;2023-05-21T00:25:30;8.60;;;6.10;;
61477;SDS011;47345;52.334;10.392;2023-05-21T00:28:01;7.70;;;5.30;;
61477;SDS011;47345;52.334;10.392;2023-05-21T00:30:33;11.80;;;5.60;;
61477;SDS011;47345;52.334;10.392;2023-05-21T00:33:04;8.10;;;5.80;;
61477;SDS011;47345;52.334;10.392;2023-05-21T00:35:37;8.70;;;5.80;;
61477;SDS011;47345;52.334;10.392;2023-05-21T00:38:08;8.80;;;6.00;;
61477;SDS011;47345;52.334;10.392;2023-05-21T00:40:38;8.50;;;5.80;;
61477;SDS011;47345;52.334;10.392;2023-05-21T00:43:09;9.50;;;5.80;;
61477;SDS011;47345;52.334;10.392;2023-05-21T00:45:41;9.90;;;5.10;;
61477;SDS011;47345;52.334;10.392;2023-05-21T00:48:14;7.50;;;5.60;;
61477;SDS011;47345;52.334;10.392;2023-05-21T00:50:44;10.60;;;5.80;;
61477;SDS011;47345;52.334;10.392;2023-05-21T00:53:16;11.20;;;5.80;;
61477;SDS011;47345;52.334;10.392;2023-05-21T00:55:47;7.10;;;5.10;;
61477;SDS011;47345;52.334;10.392;2023-05-21T00:58:19;9.30;;;6.10;;
61477;SDS011;47345;52.334;10.392;2023-05-21T01:00:50;7.60;;;5.40;;
61477;SDS011;47345;52.334;10.392;2023-05-21T01:03:23;8.10;;;5.10;;
61477;SDS011;47345;52.334;10.392;2023-05-21T01:05:54;8.40;;;5.40;;
61477;SDS011;47345;52.334;10.392;2023-05-21T01:08:27;8.20;;;5.30;;
61477;SDS011;47345;52.334;10.392;2023-05-21T01:10:58;9.30;;;5.50;;
61477;SDS011;47345;52.334;10.392;2023-05-21T01:13:29;9.50;;;5.60;;
61477;SDS011;47345;52.334;10.392;2023-05-21T01:16:01;8.40;;;5.50;;
61477;SDS011;47345;52.334;10.392;2023-05-21T01:18:33;7.30;;;5.20;;
61477;SDS011;47345;52.334;10.392;2023-05-21T01:21:05;9.80;;;5.60;;
61477;SDS011;47345;52.334;10.392;2023-05-21T01:23:36;7.60;;;5.00;;
61477;SDS011;47345;52.334;10.392;2023-05-21T01:26:07;7.40;;;5.30;;
61477;SDS011;47345;52.334;10.392;2023-05-21T01:28:39;7.70;;;5.30;;
61477;SDS011;47345;52.334;10.392;2023-05-21T01:31:13;7.20;;;5.10;;
61477;SDS011;47345;52.334;10.392;2023-05-21T01:33:50;9.10;;;5.60;;
61477;SDS011;47345;52.334;10.392;2023-05-21T01:36:24;7.90;;;5.30;;
61477;SDS011;47345;52.334;10.392;2023-05-21T01:39:04;8.40;;;5.10;;
61477;SDS011;47345;52.334;10.392;2023-05-21T01:41:40;7.80;;;5.50;;
61477;SDS011;47345;52.334;10.392;2023-05-21T01:44:14;7.80;;;5.40;;
61477;SDS011;47345;52.334;10.392;2023-05-21T01:46:46;7.00;;;5.10;;
61477;SDS011;47345;52.334;10.392;2023-05-21T01:49:18;9.20;;;5.30;;
61477;SDS011;47345;52.334;10.392;2023-05-21T01:51:50;7.80;;;4.90;;
61477;SDS011;47345;52.334;10.392;2023-05-21T01:54:24;7.20;;;5.00;;
61477;SDS011;47345;52.334;10.392;2023-05-21T01:56:55;8.60;;;5.00;;
61477;SDS011;47345;52.334;10.392;2023-05-21T01:59:26;9.40;;;5.40;;
61477;SDS011;47345;52.334;10.392;2023-05-21T02:01:57;7.60;;;5.30;;
61477;SDS011;47345;52.334;10.392;2023-05-21T02:04:28;7.80;;;5.00;;
61477;SDS011;47345;52.334;10.392;2023-05-21T02:06:59;7.00;;;5.50;;
61477;SDS011;47345;52.334;10.392;2023-05-21T02:09:30;7.90;;;5.40;;
61477;SDS011;47345;52.334;10.392;2023-05-21T02:12:01;7.50;;;5.60;;
61477;SDS011;47345;52.334;10.392;2023-05-21T02:14:34;9.30;;;6.00;;
61477;SDS011;47345;52.334;10.392;2023-05-21T02:17:05;7.80;;;5.10;;
61477;SDS011;47345;52.334;10.392;2023-05-21T02:19:37;7.10;;;5.20;;
61477;SDS011;47345;52.334;10.392;2023-05-21T02:22:09;7.70;;;5.60;;
61477;SDS011;47345;52.334;10.392;2023-05-21T02:24:40;8.50;;;5.20;;
61477;SDS011;47345;52.334;10.392;2023-05-21T02:27:12;8.60;;;5.00;;
61477;SDS011;47345;52.334;10.392;2023-05-21T02:29:44;10.60;;;5.00;;
61477;SDS011;47345;52.334;10.392;2023-05-21T02:32:15;8.00;;;4.90;;
61477;SDS011;47345;52.334;10.392;2023-05-21T02:34:46;7.50;;;5.10;;
61477;SDS011;47345;52.334;10.392;2023-05-21T02:37:18;9.90;;;4.80;;
61477;SDS011;47345;52.334;10.392;2023-05-21T02:39:49;8.60;;;5.30;;
61477;SDS011;47345;52.334;10.392;2023-05-21T02:42:20;7.60;;;5.20;;
61477;SDS011;47345;52.334;10.392;2023-05-21T02:44:51;7.50;;;5.50;;
61477;SDS011;47345;52.334;10.392;2023-05-21T02:47:22;8.50;;;4.80;;
61477;SDS011;47345;52.334;10.392;2023-05-21T02:49:53;8.20;;;5.30;;
61477;SDS011;47345;52.334;10.392;2023-05-21T02:52:26;6.40;;;5.00;;
61477;SDS011;47345;52.334;10.392;2023-05-21T02:54:57;6.10;;;4.90;;
61477;SDS011;47345;52.334;10.392;2023-05-21T02:57:28;7.40;;;4.80;;
61477;SDS011;47345;52.334;10.392;2023-05-21T02:59:59;8.70;;;4.90;;
61477;SDS011;47345;52.334;10.392;2023-05-21T03:02:32;7.20;;;4.80;;
61477;SDS011;47345;52.334;10.392;2023-05-21T03:05:04;6.70;;;4.90;;
61477;SDS011;47345;52.334;10.392;2023-05-21T03:07:35;7.20;;;5.10;;
61477;SDS011;47345;52.334;10.392;2023-05-21T03:10:09;8.30;;;5.30;;
61477;SDS011;47345;52.334;10.392;2023-05-21T03:12:40;8.30;;;5.60;;
61477;SDS011;47345;52.334;10.392;2023-05-21T03:15:11;7.50;;;5.60;;
61477;SDS011;47345;52.334;10.392;2023-05-21T03:17:42;7.40;;;4.70;;
61477;SDS011;47345;52.334;10.392;2023-05-21T03:20:13;7.10;;;4.80;;
61477;SDS011;47345;52.334;10.392;2023-05-21T03:22:45;6.90;;;4.90;;
61477;SDS011;47345;52.334;10.392;2023-05-21T03:25:16;7.80;;;4.50;;
61477;SDS011;47345;52.334;10.392;2023-05-21T03:27:48;8.70;;;4.60;;
61477;SDS011;47345;52.334;10.392;2023-05-21T03:30:20;7.80;;;5.20;;
61477;SDS011;47345;52.334;10.392;2023-05-21T03:32:50;6.90;;;4.80;;
61477;SDS011;47345;52.334;10.392;2023-05-21T03:35:23;8.60;;;4.70;;
61477;SDS011;47345;52.334;10.392;2023-05-21T03:37:53;8.90;;;4.90;;
61477;SDS011;47345;52.334;10.392;2023-05-21T03:40:24;8.10;;;4.50;;
61477;SDS011;47345;52.334;10.392;2023-05-21T03:42:56;9.20;;;5.30;;
61477;SDS011;47345;52.334;10.392;2023-05-21T03:45:26;7.40;;;4.60;;
61477;SDS011;47345;52.334;10.392;2023-05-21T03:47:57;7.70;;;4.70;;
61477;SDS011;47345;52.334;10.392;2023-05-21T03:50:28;7.70;;;4.80;;
61477;SDS011;47345;52.334;10.392;2023-05-21T03:52:59;6.40;;;4.70;;
61477;SDS011;47345;52.334;10.392;2023-05-21T03:55:30;9.00;;;4.70;;
61477;SDS011;47345;52.334;10.392;2023-05-21T03:58:01;7.50;;;4.60;;
61477;SDS011;47345;52.334;10.392;2023-05-21T04:00:31;9.70;;;5.00;;
61477;SDS011;47345;52.334;10.392;2023-05-21T04:03:05;7.00;;;4.60;;
61477;SDS011;47345;52.334;10.392;2023-05-21T04:05:38;6.90;;;4.80;;
61477;SDS011;47345;52.334;10.392;2023-05-21T04:08:09;7.00;;;4.70;;
61477;SDS011;47345;52.334;10.392;2023-05-21T04:10:40;6.50;;;4.60;;
61477;SDS011;47345;52.334;10.392;2023-05-21T04:13:10;10.60;;;5.10;;
61477;SDS011;47345;52.334;10.392;2023-05-21T04:15:41;6.80;;;4.40;;
61477;SDS011;47345;52.334;10.392;2023-05-21T04:18:13;6.80;;;4.40;;
61477;SDS011;47345;52.334;10.392;2023-05-21T04:20:44;6.80;;;4.50;;
61477;SDS011;47345;52.334;10.392;2023-05-21T04:23:16;6.80;;;4.90;;
61477;SDS011;47345;52.334;10.392;2023-05-21T04:25:50;6.00;;;4.60;;
61477;SDS011;47345;52.334;10.392;2023-05-21T04:28:21;7.10;;;5.00;;
61477;SDS011;47345;52.334;10.392;2023-05-21T04:30:55;7.90;;;4.80;;
61477;SDS011;47345;52.334;10.392;2023-05-21T04:33:26;8.80;;;5.40;;
61477;SDS011;47345;52.334;10.392;2023-05-21T04:35:58;7.80;;;5.10;;
61477;SDS011;47345;52.334;10.392;2023-05-21T04:38:28;7.50;;;5.10;;
61477;SDS011;47345;52.334;10.392;2023-05-21T04:41:00;8.40;;;5.40;;
61477;SDS011;47345;52.334;10.392;2023-05-21T04:43:31;7.40;;;5.00;;
61477;SDS011;47345;52.334;10.392;2023-05-21T04:46:02;6.90;;;4.90;;
61477;SDS011;47345;52.334;10.392;2023-05-21T04:48:33;7.10;;;4.80;;
61477;SDS011;47345;52.334;10.392;2023-05-21T04:51:05;9.00;;;5.60;;
61477;SDS011;47345;52.334;10.392;2023-05-21T04:53:35;8.60;;;5.30;;
61477;SDS011;47345;52.334;10.392;2023-05-21T04:56:07;11.70;;;5.10;;
61477;SDS011;47345;52.334;10.392;2023-05-21T04:58:38;6.90;;;4.90;;
61477;SDS011;47345;52.334;10.392;2023-05-21T05:01:09;6.90;;;4.60;;
61477;SDS011;47345;52.334;10.392;2023-05-21T05:03:40;9.80;;;5.40;;
61477;SDS011;47345;52.334;10.392;2023-05-21T05:06:11;7.80;;;5.00;;
61477;SDS011;47345;52.334;10.392;2023-05-21T05:08:41;9.40;;;5.30;;
61477;SDS011;47345;52.334;10.392;2023-05-21T05:11:12;6.90;;;4.70;;
61477;SDS011;47345;52.334;10.392;2023-05-21T05:13:43;9.00;;;5.90;;
61477;SDS011;47345;52.334;10.392;2023-05-21T05:16:14;9.50;;;5.60;;
61477;SDS011;47345;52.334;10.392;2023-05-21T05:18:52;13.40;;;6.00;;
61477;SDS011;47345;52.334;10.392;2023-05-21T05:21:23;8.10;;;5.50;;
61477;SDS011;47345;52.334;10.392;2023-05-21T05:23:54;10.00;;;6.00;;
61477;SDS011;47345;52.334;10.392;2023-05-21T05:26:25;8.50;;;6.30;;
61477;SDS011;47345;52.334;10.392;2023-05-21T05:28:56;8.40;;;5.70;;
61477;SDS011;47345;52.334;10.392;2023-05-21T05:31:27;8.50;;;6.50;;
61477;SDS011;47345;52.334;10.392;2023-05-21T05:33:58;7.10;;;5.70;;
61477;SDS011;47345;52.334;10.392;2023-05-21T05:36:29;9.30;;;6.20;;
61477;SDS011;47345;52.334;10.392;2023-05-21T05:39:00;12.20;;;7.20;;
61477;SDS011;47345;52.334;10.392;2023-05-21T05:41:31;11.10;;;7.20;;
61477;SDS011;47345;52.334;10.392;2023-05-21T05:44:02;8.30;;;6.20;;
61477;SDS011;47345;52.334;10.392;2023-05-21T05:46:37;9.80;;;6.50;;
61477;SDS011;47345;52.334;10.392;2023-05-21T05:49:08;11.40;;;6.70;;
61477;SDS011;47345;52.334;10.392;2023-05-21T05:51:40;9.80;;;6.60;;
61477;SDS011;47345;52.334;10.392;2023-05-21T05:54:12;13.80;;;7.20;;
61477;SDS011;47345;52.334;10.392;2023-05-21T05:56:42;10.40;;;7.10;;
61477;SDS011;47345;52.334;10.392;2023-05-21T05:59:14;12.50;;;7.20;;
61477;SDS011;47345;52.334;10.392;2023-05-21T06:01:44;16.70;;;10.10;;
61477;SDS011;47345;52.334;10.392;2023-05-21T06:04:16;12.30;;;7.50;;
61477;SDS011;47345;52.334;10.392;2023-05-21T06:06:47;13.30;;;8.00;;
61477;SDS011;47345;52.334;10.392;2023-05-21T06:09:19;13.80;;;9.40;;
61477;SDS011;47345;52.334;10.392;2023-05-21T06:11:50;13.80;;;9.70;;
61477;SDS011;47345;52.334;10.392;2023-05-21T06:14:20;11.50;;;7.60;;
61477;SDS011;47345;52.334;10.392;2023-05-21T06:16:53;13.30;;;8.30;;
61477;SDS011;47345;52.334;10.392;2023-05-21T06:19:24;12.90;;;8.70;;
61477;SDS011;47345;52.334;10.392;2023-05-21T06:21:54;11.80;;;7.50;;
61477;SDS011;47345;52.334;10.392;2023-05-21T06:24:25;15.50;;;8.10;;
61477;SDS011;47345;52.334;10.392;2023-05-21T06:26:56;14.10;;;8.90;;
61477;SDS011;47345;52.334;10.392;2023-05-21T06:29:27;12.40;;;8.60;;
61477;SDS011;47345;52.334;10.392;2023-05-21T06:31:58;12.50;;;8.40;;
61477;SDS011;47345;52.334;10.392;2023-05-21T06:34:29;16.10;;;8.20;;
61477;SDS011;47345;52.334;10.392;2023-05-21T06:37:00;14.30;;;8.20;;
61477;SDS011;47345;52.334;10.392;2023-05-21T06:39:31;11.90;;;8.30;;
61477;SDS011;47345;52.334;10.392;2023-05-21T06:42:03;15.10;;;9.00;;
61477;SDS011;47345;52.334;10.392;2023-05-21T06:44:34;11.30;;;8.30;;
61477;SDS011;47345;52.334;10.392;2023-05-21T06:47:05;19.40;;;10.50;;
61477;SDS011;47345;52.334;10.392;2023-05-21T06:49:36;12.50;;;8.80;;
61477;SDS011;47345;52.334;10.392;2023-05-21T06:52:07;13.20;;;9.00;;
61477;SDS011;47345;52.334;10.392;2023-05-21T06:54:38;12.40;;;9.20;;
61477;SDS011;47345;52.334;10.392;2023-05-21T06:57:09;15.10;;;9.90;;
61477;SDS011;47345;52.334;10.392;2023-05-21T06:59:42;14.20;;;9.80;;
61477;SDS011;47345;52.334;10.392;2023-05-21T07:02:13;13.90;;;9.40;;
61477;SDS011;47345;52.334;10.392;2023-05-21T07:04:44;12.20;;;8.90;;
61477;SDS011;47345;52.334;10.392;2023-05-21T07:07:15;15.20;;;9.60;;
61477;SDS011;47345;52.334;10.392;2023-05-21T07:09:45;15.10;;;10.00;;
61477;SDS011;47345;52.334;10.392;2023-05-21T07:12:16;16.50;;;11.60;;
61477;SDS011;47345;52.334;10.392;2023-05-21T07:14:47;14.10;;;9.30;;
61477;SDS011;47345;52.334;10.392;2023-05-21T07:17:18;15.50;;;10.00;;
61477;SDS011;47345;52.334;10.392;2023-05-21T07:19:49;20.30;;;10.80;;
61477;SDS011;47345;52.334;10.392;2023-05-21T07:22:20;14.90;;;9.60;;
61477;SDS011;47345;52.334;10.392;2023-05-21T07:24:54;15.60;;;10.00;;
61477;SDS011;47345;52.334;10.392;2023-05-21T07:27:25;18.60;;;11.10;;
61477;SDS011;47345;52.334;10.392;2023-05-21T07:29:56;18.40;;;11.60;;
61477;SDS011;47345;52.334;10.392;2023-05-21T07:32:27;22.80;;;11.40;;
61477;SDS011;47345;52.334;10.392;2023-05-21T07:34:58;17.30;;;10.60;;
61477;SDS011;47345;52.334;10.392;2023-05-21T07:37:29;17.60;;;11.00;;
61477;SDS011;47345;52.334;10.392;2023-05-21T07:40:00;21.10;;;11.50;;
61477;SDS011;47345;52.334;10.392;2023-05-21T07:42:33;17.90;;;10.60;;
61477;SDS011;47345;52.334;10.392;2023-05-21T07:45:05;15.20;;;10.10;;
61477;SDS011;47345;52.334;10.392;2023-05-21T07:47:37;14.90;;;10.10;;
61477;SDS011;47345;52.334;10.392;2023-05-21T07:50:09;16.20;;;10.60;;
61477;SDS011;47345;52.334;10.392;2023-05-21T07:52:40;19.00;;;11.80;;
61477;SDS011;47345;52.334;10.392;2023-05-21T07:55:11;18.40;;;12.10;;
61477;SDS011;47345;52.334;10.392;2023-05-21T07:57:42;18.60;;;11.80;;
61477;SDS011;47345;52.334;10.392;2023-05-21T08:00:14;20.40;;;11.90;;
61477;SDS011;47345;52.334;10.392;2023-05-21T08:02:45;20.20;;;13.00;;
61477;SDS011;47345;52.334;10.392;2023-05-21T08:05:16;18.00;;;11.60;;
61477;SDS011;47345;52.334;10.392;2023-05-21T08:07:48;19.20;;;11.70;;
61477;SDS011;47345;52.334;10.392;2023-05-21T08:10:19;18.90;;;11.80;;
61477;SDS011;47345;52.334;10.392;2023-05-21T08:12:50;17.50;;;11.60;;
61477;SDS011;47345;52.334;10.392;2023-05-21T08:15:21;21.70;;;12.40;;
61477;SDS011;47345;52.334;10.392;2023-05-21T08:17:52;19.30;;;12.40;;
61477;SDS011;47345;52.334;10.392;2023-05-21T08:20:23;18.90;;;12.00;;
61477;SDS011;47345;52.334;10.392;2023-05-21T08:22:54;17.40;;;11.40;;
61477;SDS011;47345;52.334;10.392;2023-05-21T08:25:25;18.30;;;11.80;;
61477;SDS011;47345;52.334;10.392;2023-05-21T08:27:55;19.70;;;11.90;;
61477;SDS011;47345;52.334;10.392;2023-05-21T08:30:26;17.20;;;11.30;;
61477;SDS011;47345;52.334;10.392;2023-05-21T08:32:57;17.20;;;11.30;;
61477;SDS011;47345;52.334;10.392;2023-05-21T08:35:28;18.10;;;11.10;;
61477;SDS011;47345;52.334;10.392;2023-05-21T08:37:59;16.00;;;11.10;;
61477;SDS011;47345;52.334;10.392;2023-05-21T08:40:30;17.40;;;12.10;;
61477;SDS011;47345;52.334;10.392;2023-05-21T08:43:02;20.40;;;12.00;;
61477;SDS011;47345;52.334;10.392;2023-05-21T08:45:33;18.80;;;11.60;;
61477;SDS011;47345;52.334;10.392;2023-05-21T08:48:09;20.50;;;13.50;;
61477;SDS011;47345;52.334;10.392;2023-05-21T08:50:40;17.50;;;11.20;;
61477;SDS011;47345;52.334;10.392;2023-05-21T08:53:10;18.00;;;11.00;;
61477;SDS011;47345;52.334;10.392;2023-05-21T08:55:55;16.80;;;11.10;;
61477;SDS011;47345;52.334;10.392;2023-05-21T08:58:26;15.90;;;11.40;;
61477;SDS011;47345;52.334;10.392;2023-05-21T09:01:00;17.60;;;11.50;;
61477;SDS011;47345;52.334;10.392;2023-05-21T09:03:33;16.30;;;11.30;;
61477;SDS011;47345;52.334;10.392;2023-05-21T09:06:10;19.90;;;11.80;;
61477;SDS011;47345;52.334;10.392;2023-05-21T09:08:44;17.10;;;11.20;;
61477;SDS011;47345;52.334;10.392;2023-05-21T09:11:21;17.30;;;11.10;;
61477;SDS011;47345;52.334;10.392;2023-05-21T09:13:52;18.20;;;11.60;;
61477;SDS011;47345;52.334;10.392;2023-05-21T09:16:24;17.30;;;11.30;;
61477;SDS011;47345;52.334;10.392;2023-05-21T09:18:56;18.60;;;12.20;;
61477;SDS011;47345;52.334;10.392;2023-05-21T09:21:30;21.20;;;12.20;;
61477;SDS011;47345;52.334;10.392;2023-05-21T09:24:01;17.10;;;11.50;;
61477;SDS011;47345;52.334;10.392;2023-05-21T09:26:31;17.20;;;11.60;;
61477;SDS011;47345;52.334;10.392;2023-05-21T09:29:03;18.30;;;12.40;;
61477;SDS011;47345;52.334;10.392;2023-05-21T09:31:33;18.10;;;12.80;;
61477;SDS011;47345;52.334;10.392;2023-05-21T09:34:05;17.30;;;12.10;;
61477;SDS011;47345;52.334;10.392;2023-05-21T09:36:37;21.60;;;12.60;;
61477;SDS011;47345;52.334;10.392;2023-05-21T09:39:08;17.70;;;11.80;;
61477;SDS011;47345;52.334;10.392;2023-05-21T09:41:44;16.40;;;11.40;;
61477;SDS011;47345;52.334;10.392;2023-05-21T09:44:17;24.60;;;13.20;;
61477;SDS011;47345;52.334;10.392;2023-05-21T09:46:48;71.90;;;24.60;;
61477;SDS011;47345;52.334;10.392;2023-05-21T09:49:22;23.90;;;14.20;;
61477;SDS011;47345;52.334;10.392;2023-05-21T09:51:55;23.50;;;13.80;;
61477;SDS011;47345;52.334;10.392;2023-05-21T09:54:29;16.80;;;12.40;;
61477;SDS011;47345;52.334;10.392;2023-05-21T09:57:00;23.20;;;11.90;;
61477;SDS011;47345;52.334;10.392;2023-05-21T09:59:38;19.00;;;11.60;;
61477;SDS011;47345;52.334;10.392;2023-05-21T10:07:17;18.80;;;11.80;;
61477;SDS011;47345;52.334;10.392;2023-05-21T10:09:53;18.50;;;12.00;;
61477;SDS011;47345;52.334;10.392;2023-05-21T10:12:25;20.10;;;11.30;;
61477;SDS011;47345;52.334;10.392;2023-05-21T10:14:59;17.10;;;11.10;;
61477;SDS011;47345;52.334;10.392;2023-05-21T10:17:31;18.60;;;12.10;;
61477;SDS011;47345;52.334;10.392;2023-05-21T10:20:09;17.00;;;10.20;;
61477;SDS011;47345;52.334;10.392;2023-05-21T10:22:40;17.20;;;10.80;;
61477;SDS011;47345;52.334;10.392;2023-05-21T10:25:12;19.70;;;11.40;;
61477;SDS011;47345;52.334;10.392;2023-05-21T10:27:43;15.50;;;11.00;;
61477;SDS011;47345;52.334;10.392;2023-05-21T10:30:14;16.30;;;11.30;;
61477;SDS011;47345;52.334;10.392;2023-05-21T10:32:49;17.20;;;11.20;;
61477;SDS011;47345;52.334;10.392;2023-05-21T10:35:23;14.90;;;10.80;;
61477;SDS011;47345;52.334;10.392;2023-05-21T10:37:54;16.50;;;11.70;;
61477;SDS011;47345;52.334;10.392;2023-05-21T10:40:26;16.40;;;11.50;;
61477;SDS011;47345;52.334;10.392;2023-05-21T10:43:01;16.30;;;11.50;;
61477;SDS011;47345;52.334;10.392;2023-05-21T10:45:52;15.50;;;10.60;;
61477;SDS011;47345;52.334;10.392;2023-05-21T10:48:41;19.30;;;10.60;;
61477;SDS011;47345;52.334;10.392;2023-05-21T10:51:28;16.00;;;11.10;;
61477;SDS011;47345;52.334;10.392;2023-05-21T10:54:26;16.20;;;10.90;;
61477;SDS011;47345;52.334;10.392;2023-05-21T10:57:18;16.30;;;10.60;;
61477;SDS011;47345;52.334;10.392;2023-05-21T11:02:32;16.80;;;11.10;;
61477;SDS011;47345;52.334;10.392;2023-05-21T11:05:05;13.60;;;10.00;;
61477;SDS011;47345;52.334;10.392;2023-05-21T11:07:53;18.70;;;10.70;;
61477;SDS011;47345;52.334;10.392;2023-05-21T11:10:32;17.40;;;10.70;;
61477;SDS011;47345;52.334;10.392;2023-05-21T11:13:08;20.90;;;11.50;;
61477;SDS011;47345;52.334;10.392;2023-05-21T11:21:32;16.00;;;10.40;;
61477;SDS011;47345;52.334;10.392;2023-05-21T11:24:07;14.20;;;10.40;;
61477;SDS011;47345;52.334;10.392;2023-05-21T11:27:02;14.10;;;10.60;;
61477;SDS011;47345;52.334;10.392;2023-05-21T11:29:40;16.60;;;10.60;;
61477;SDS011;47345;52.334;10.392;2023-05-21T11:32:13;16.50;;;11.10;;
61477;SDS011;47345;52.334;10.392;2023-05-21T11:34:47;17.10;;;10.40;;
61477;SDS011;47345;52.334;10.392;2023-05-21T11:37:28;20.20;;;11.10;;
61477;SDS011;47345;52.334;10.392;2023-05-21T11:40:17;14.10;;;10.20;;
61477;SDS011;47345;52.334;10.392;2023-05-21T11:42:53;17.00;;;10.50;;
61477;SDS011;47345;52.334;10.392;2023-05-21T11:45:26;15.10;;;10.00;;
61477;SDS011;47345;52.334;10.392;2023-05-21T11:47:58;13.20;;;9.60;;
61477;SDS011;47345;52.334;10.392;2023-05-21T11:50:30;16.00;;;9.60;;
61477;SDS011;47345;52.334;10.392;2023-05-21T11:53:02;14.80;;;10.10;;
61477;SDS011;47345;52.334;10.392;2023-05-21T11:55:34;13.50;;;10.00;;
61477;SDS011;47345;52.334;10.392;2023-05-21T11:58:11;15.30;;;10.00;;
61477;SDS011;47345;52.334;10.392;2023-05-21T12:00:43;15.20;;;10.20;;
61477;SDS011;47345;52.334;10.392;2023-05-21T12:03:18;13.60;;;10.20;;
61477;SDS011;47345;52.334;10.392;2023-05-21T12:05:54;11.50;;;9.00;;
61477;SDS011;47345;52.334;10.392;2023-05-21T12:08:32;13.60;;;10.70;;
61477;SDS011;47345;52.334;10.392;2023-05-21T12:11:05;13.40;;;9.60;;
61477;SDS011;47345;52.334;10.392;2023-05-21T12:13:35;11.90;;;9.40;;
61477;SDS011;47345;52.334;10.392;2023-05-21T12:16:07;13.70;;;8.90;;
61477;SDS011;47345;52.334;10.392;2023-05-21T12:18:38;13.30;;;9.90;;
61477;SDS011;47345;52.334;10.392;2023-05-21T12:21:09;14.60;;;9.80;;
61477;SDS011;47345;52.334;10.392;2023-05-21T12:23:40;13.50;;;9.60;;
61477;SDS011;47345;52.334;10.392;2023-05-21T12:26:11;13.40;;;9.80;;
61477;SDS011;47345;52.334;10.392;2023-05-21T12:28:42;10.30;;;8.90;;
61477;SDS011;47345;52.334;10.392;2023-05-21T12:31:14;14.20;;;9.60;;
61477;SDS011;47345;52.334;10.392;2023-05-21T12:33:47;12.30;;;9.60;;
61477;SDS011;47345;52.334;10.392;2023-05-21T12:36:21;12.60;;;9.20;;
61477;SDS011;47345;52.334;10.392;2023-05-21T12:38:54;13.60;;;9.40;;
61477;SDS011;47345;52.334;10.392;2023-05-21T12:41:25;15.90;;;9.50;;
61477;SDS011;47345;52.334;10.392;2023-05-21T12:43:57;14.20;;;8.70;;
61477;SDS011;47345;52.334;10.392;2023-05-21T12:46:28;13.80;;;8.50;;
61477;SDS011;47345;52.334;10.392;2023-05-21T12:48:59;14.40;;;9.00;;
61477;SDS011;47345;52.334;10.392;2023-05-21T12:51:37;10.60;;;8.80;;
61477;SDS011;47345;52.334;10.392;2023-05-21T12:54:11;12.20;;;8.70;;
61477;SDS011;47345;52.334;10.392;2023-05-21T12:56:45;14.50;;;9.10;;
61477;SDS011;47345;52.334;10.392;2023-05-21T12:59:17;11.20;;;8.30;;
61477;SDS011;47345;52.334;10.392;2023-05-21T13:01:47;11.80;;;8.40;;
61477;SDS011;47345;52.334;10.392;2023-05-21T13:04:20;13.70;;;9.00;;
61477;SDS011;47345;52.334;10.392;2023-05-21T13:06:51;13.10;;;9.10;;
61477;SDS011;47345;52.334;10.392;2023-05-21T13:09:23;12.40;;;9.40;;
61477;SDS011;47345;52.334;10.392;2023-05-21T13:11:53;15.80;;;9.00;;
61477;SDS011;47345;52.334;10.392;2023-05-21T13:14:24;15.70;;;8.70;;
61477;SDS011;47345;52.334;10.392;2023-05-21T13:16:55;10.20;;;8.30;;
61477;SDS011;47345;52.334;10.392;2023-05-21T13:19:27;13.80;;;10.20;;
61477;SDS011;47345;52.334;10.392;2023-05-21T13:21:58;15.00;;;8.90;;
61477;SDS011;47345;52.334;10.392;2023-05-21T13:24:28;13.50;;;9.20;;
61477;SDS011;47345;52.334;10.392;2023-05-21T13:26:59;13.30;;;9.20;;
61477;SDS011;47345;52.334;10.392;2023-05-21T13:29:30;12.20;;;8.70;;
61477;SDS011;47345;52.334;10.392;2023-05-21T13:32:04;13.80;;;8.60;;
61477;SDS011;47345;52.334;10.392;2023-05-21T13:34:35;12.30;;;8.60;;
61477;SDS011;47345;52.334;10.392;2023-05-21T13:37:06;14.40;;;9.20;;
61477;SDS011;47345;52.334;10.392;2023-05-21T13:39:37;11.20;;;8.40;;
61477;SDS011;47345;52.334;10.392;2023-05-21T13:42:08;14.80;;;8.80;;
61477;SDS011;47345;52.334;10.392;2023-05-21T13:44:39;13.20;;;8.40;;
61477;SDS011;47345;52.334;10.392;2023-05-21T13:47:10;18.30;;;9.40;;
61477;SDS011;47345;52.334;10.392;2023-05-21T13:49:41;11.80;;;8.60;;
61477;SDS011;47345;52.334;10.392;2023-05-21T13:52:12;16.40;;;9.00;;
61477;SDS011;47345;52.334;10.392;2023-05-21T13:54:46;13.10;;;9.10;;
61477;SDS011;47345;52.334;10.392;2023-05-21T13:57:18;13.60;;;9.30;;
61477;SDS011;47345;52.334;10.392;2023-05-21T13:59:49;12.10;;;8.70;;
61477;SDS011;47345;52.334;10.392;2023-05-21T14:02:20;16.60;;;9.20;;
61477;SDS011;47345;52.334;10.392;2023-05-21T14:04:52;12.60;;;8.50;;
61477;SDS011;47345;52.334;10.392;2023-05-21T14:07:23;11.90;;;8.70;;
61477;SDS011;47345;52.334;10.392;2023-05-21T14:09:54;11.70;;;9.90;;
61477;SDS011;47345;52.334;10.392;2023-05-21T14:12:25;13.60;;;9.50;;
61477;SDS011;47345;52.334;10.392;2023-05-21T14:14:55;13.70;;;9.10;;
61477;SDS011;47345;52.334;10.392;2023-05-21T14:17:26;12.10;;;8.70;;
61477;SDS011;47345;52.334;10.392;2023-05-21T14:19:57;11.40;;;8.50;;
61477;SDS011;47345;52.334;10.392;2023-05-21T14:22:28;12.40;;;8.90;;
61477;SDS011;47345;52.334;10.392;2023-05-21T14:24:59;10.90;;;8.50;;
61477;SDS011;47345;52.334;10.392;2023-05-21T14:27:30;13.40;;;9.00;;
61477;SDS011;47345;52.334;10.392;2023-05-21T14:30:01;13.70;;;8.80;;
61477;SDS011;47345;52.334;10.392;2023-05-21T14:32:32;13.30;;;9.00;;
61477;SDS011;47345;52.334;10.392;2023-05-21T14:35:03;12.30;;;8.70;;
61477;SDS011;47345;52.334;10.392;2023-05-21T14:37:34;11.60;;;8.50;;
61477;SDS011;47345;52.334;10.392;2023-05-21T14:40:06;12.20;;;9.40;;
61477;SDS011;47345;52.334;10.392;2023-05-21T14:42:38;11.20;;;8.30;;
61477;SDS011;47345;52.334;10.392;2023-05-21T14:45:10;14.80;;;9.20;;
61477;SDS011;47345;52.334;10.392;2023-05-21T14:47:46;10.90;;;8.60;;
61477;SDS011;47345;52.334;10.392;2023-05-21T14:50:17;11.30;;;8.70;;
61477;SDS011;47345;52.334;10.392;2023-05-21T14:52:48;11.80;;;8.30;;
61477;SDS011;47345;52.334;10.392;2023-05-21T14:55:19;10.40;;;8.30;;
61477;SDS011;47345;52.334;10.392;2023-05-21T14:57:51;10.80;;;8.30;;
61477;SDS011;47345;52.334;10.392;2023-05-21T15:00:21;10.20;;;8.30;;
61477;SDS011;47345;52.334;10.392;2023-05-21T15:02:52;15.50;;;8.30;;
61477;SDS011;47345;52.334;10.392;2023-05-21T15:05:24;11.10;;;8.80;;